createdAt,value
2023-05-01T00:01:43.902Z,7.58
2023-05-01T00:04:12.532Z,7.54
2023-05-01T00:06:40.591Z,7.50
2023-05-01T00:09:09.092Z,7.48
2023-05-01T00:11:37.078Z,7.45
2023-05-01T00:14:05.100Z,7.43
2023-05-01T00:16:33.053Z,7.32
2023-05-01T00:19:00.880Z,7.17
2023-05-01T00:21:28.524Z,7.01
2023-05-01T00:23:56.912Z,6.90
2023-05-01T00:26:26.661Z,6.85
2023-05-01T00:28:54.472Z,6.80
2023-05-01T00:31:25.356Z,6.76
2023-05-01T00:33:53.287Z,6.70
2023-05-01T00:36:21.565Z,6.66
2023-05-01T00:38:49.823Z,6.63
2023-05-01T00:41:17.658Z,6.62
2023-05-01T00:43:45.650Z,6.58
2023-05-01T00:46:13.414Z,6.55
2023-05-01T00:48:41.693Z,6.53
2023-05-01T00:51:10.115Z,6.52
2023-05-01T00:53:41.505Z,6.47
2023-05-01T00:56:11.209Z,6.41
2023-05-01T00:58:40.094Z,6.34
2023-05-01T01:01:09.367Z,6.29
2023-05-01T01:03:37.209Z,6.22
2023-05-01T01:06:13.217Z,6.19
2023-05-01T01:09:09.122Z,6.07
2023-05-01T01:11:48.150Z,6.16
2023-05-01T01:14:21.160Z,6.12
2023-05-01T01:17:07.972Z,6.10
2023-05-01T01:20:03.534Z,6.10
2023-05-01T01:22:34.270Z,6.10
2023-05-01T01:25:18.739Z,6.08
2023-05-01T01:28:05.234Z,6.08
2023-05-01T01:31:02.675Z,6.06
2023-05-01T01:34:12.404Z,6.03
2023-05-01T01:37:05.891Z,6.01
2023-05-01T01:39:44.992Z,5.97
2023-05-01T01:42:26.120Z,5.93
2023-05-01T01:45:03.003Z,5.90
2023-05-01T01:47:33.103Z,5.86
2023-05-01T01:50:04.945Z,5.83
2023-05-01T01:52:36.082Z,5.82
2023-05-01T01:55:12.949Z,5.81
2023-05-01T01:57:45.157Z,5.79
2023-05-01T02:00:14.161Z,5.74
2023-05-01T02:02:45.423Z,5.72
2023-05-01T02:05:16.863Z,5.68
2023-05-01T02:07:48.354Z,5.64
2023-05-01T02:10:17.745Z,5.56
2023-05-01T02:12:48.453Z,5.47
2023-05-01T02:15:19.287Z,5.38
2023-05-01T02:17:49.331Z,5.35
2023-05-01T02:20:18.368Z,5.31
2023-05-01T02:22:47.375Z,5.32
2023-05-01T02:25:16.354Z,5.30
2023-05-01T02:28:00.569Z,5.29
2023-05-01T02:30:28.301Z,5.26
2023-05-01T02:32:57.455Z,5.25
2023-05-01T02:35:26.985Z,5.23
2023-05-01T02:37:55.235Z,5.21
2023-05-01T02:40:26.908Z,5.18
2023-05-01T02:42:55.622Z,5.16
2023-05-01T02:45:26.961Z,5.14
2023-05-01T02:47:59.301Z,5.13
2023-05-01T02:50:29.637Z,5.13
2023-05-01T02:52:59.450Z,5.12
2023-05-01T02:55:32.930Z,5.12
2023-05-01T02:58:01.230Z,5.11
2023-05-01T03:00:30.222Z,5.11
2023-05-01T03:02:59.143Z,5.12
2023-05-01T03:05:27.327Z,5.15
2023-05-01T03:07:55.156Z,5.14
2023-05-01T03:10:23.952Z,5.15
2023-05-01T03:12:57.927Z,5.14
2023-05-01T03:15:25.707Z,5.14
2023-05-01T03:18:03.577Z,5.14
2023-05-01T03:20:36.511Z,5.15
2023-05-01T03:25:45.296Z,5.13
2023-05-01T03:28:13.783Z,5.10
2023-05-01T03:30:41.579Z,5.08
2023-05-01T03:33:09.489Z,5.07
2023-05-01T03:35:39.323Z,5.18
2023-05-01T03:38:07.432Z,5.43
2023-05-01T03:40:51.823Z,5.72
2023-05-01T03:43:38.088Z,6.18
2023-05-01T03:46:08.030Z,6.79
2023-05-01T03:48:36.868Z,7.45
2023-05-01T03:51:06.454Z,8.17
2023-05-01T03:53:36.289Z,8.85
2023-05-01T03:56:05.800Z,9.49
2023-05-01T03:58:33.612Z,10.00
2023-05-01T04:01:02.688Z,10.46
2023-05-01T04:03:31.432Z,10.84
2023-05-01T04:05:59.597Z,11.34
2023-05-01T04:08:27.461Z,12.05
2023-05-01T04:10:55.494Z,12.80
2023-05-01T04:13:23.269Z,13.50
2023-05-01T04:15:51.549Z,14.20
2023-05-01T04:18:19.753Z,14.73
2023-05-01T04:20:47.910Z,15.22
2023-05-01T04:23:16.274Z,15.61
2023-05-01T04:25:46.905Z,16.15
2023-05-01T04:28:18.533Z,16.58
2023-05-01T04:30:46.471Z,16.96
2023-05-01T04:33:14.595Z,17.32
2023-05-01T04:35:42.627Z,17.58
2023-05-01T04:38:11.218Z,17.63
2023-05-01T04:40:39.335Z,17.87
2023-05-01T04:43:07.460Z,18.08
2023-05-01T04:45:35.744Z,18.38
2023-05-01T04:48:04.331Z,18.62
2023-05-01T04:50:32.586Z,18.64
2023-05-01T04:53:00.583Z,18.79
2023-05-01T04:55:31.100Z,18.96
2023-05-01T04:58:04.641Z,19.00
2023-05-01T05:00:36.270Z,18.76
2023-05-01T05:03:06.560Z,17.96
2023-05-01T05:05:36.907Z,16.99
2023-05-01T05:08:06.308Z,16.15
2023-05-01T05:10:45.330Z,15.48
2023-05-01T05:13:25.746Z,14.96
2023-05-01T05:16:03.213Z,14.52
2023-05-01T05:18:32.010Z,14.40
2023-05-01T05:21:06.742Z,14.25
2023-05-01T05:23:35.143Z,14.46
2023-05-01T05:26:03.705Z,14.60
2023-05-01T05:28:31.956Z,14.67
2023-05-01T05:31:00.000Z,14.50
2023-05-01T05:33:31.156Z,14.64
2023-05-01T05:36:00.040Z,14.70
2023-05-01T05:38:29.714Z,14.53
2023-05-01T05:41:00.415Z,14.40
2023-05-01T05:43:28.415Z,14.42
2023-05-01T05:45:58.176Z,14.72
2023-05-01T05:48:27.364Z,14.81
2023-05-01T05:50:55.671Z,14.93
2023-05-01T05:53:25.754Z,14.95
2023-05-01T05:55:53.941Z,14.99
2023-05-01T05:58:22.826Z,15.05
2023-05-01T06:00:52.448Z,15.16
2023-05-01T06:03:21.052Z,15.26
2023-05-01T06:05:49.692Z,15.26
2023-05-01T06:08:17.663Z,15.21
2023-05-01T06:10:45.825Z,15.24
2023-05-01T06:13:14.859Z,15.28
2023-05-01T06:15:44.966Z,15.43
2023-05-01T06:18:13.124Z,15.97
2023-05-01T06:20:42.528Z,16.40
2023-05-01T06:23:10.310Z,16.73
2023-05-01T06:25:46.738Z,17.14
2023-05-01T06:28:14.719Z,17.60
2023-05-01T06:30:47.964Z,17.92
2023-05-01T06:33:16.081Z,18.19
2023-05-01T06:35:44.241Z,18.51
2023-05-01T06:38:20.197Z,18.70
2023-05-01T06:40:49.409Z,18.84
2023-05-01T06:43:20.247Z,19.23
2023-05-01T06:45:48.437Z,19.36
2023-05-01T06:48:18.541Z,19.23
2023-05-01T06:50:46.504Z,19.62
2023-05-01T06:53:16.812Z,20.16
2023-05-01T06:55:48.440Z,20.71
2023-05-01T06:58:24.038Z,21.04
2023-05-01T07:00:45.962Z,21.04
2023-05-01T07:03:13.994Z,21.18
2023-05-01T07:05:41.878Z,21.50
2023-05-01T07:08:14.664Z,21.70
2023-05-01T07:10:43.193Z,21.91
2023-05-01T07:13:11.088Z,22.11
2023-05-01T07:15:38.654Z,22.28
2023-05-01T07:18:06.536Z,22.56
2023-05-01T07:20:34.348Z,22.77
2023-05-01T07:23:02.106Z,22.91
2023-05-01T07:25:32.534Z,22.92
2023-05-01T07:28:02.559Z,23.01
2023-05-01T07:30:32.494Z,23.17
2023-05-01T07:33:01.171Z,23.00
2023-05-01T07:35:29.045Z,22.89
2023-05-01T07:37:57.086Z,22.98
2023-05-01T07:40:28.054Z,23.23
2023-05-01T07:42:55.806Z,23.21
2023-05-01T07:45:23.712Z,23.23
2023-05-01T07:47:52.916Z,23.35
2023-05-01T07:50:22.283Z,23.52
2023-05-01T07:52:50.569Z,23.62
2023-05-01T07:55:18.676Z,23.74
2023-05-01T07:57:46.359Z,23.77
2023-05-01T08:00:15.172Z,23.55
2023-05-01T08:02:43.628Z,22.97
2023-05-01T08:05:11.728Z,22.77
2023-05-01T08:07:39.241Z,22.89
2023-05-01T08:10:08.332Z,23.06
2023-05-01T08:12:36.432Z,23.03
2023-05-01T08:15:07.909Z,23.09
2023-05-01T08:17:36.419Z,23.22
2023-05-01T08:20:05.198Z,23.40
2023-05-01T08:22:35.382Z,23.59
2023-05-01T08:25:06.142Z,23.34
2023-05-01T08:27:37.887Z,23.13
2023-05-01T08:30:07.170Z,23.06
2023-05-01T08:32:36.435Z,22.99
2023-05-01T08:35:04.672Z,23.10
2023-05-01T08:37:34.855Z,23.22
2023-05-01T08:40:04.554Z,23.29
2023-05-01T08:42:32.625Z,23.47
2023-05-01T08:45:04.225Z,23.62
2023-05-01T08:47:37.945Z,23.75
2023-05-01T08:50:12.981Z,23.70
2023-05-01T08:52:43.120Z,23.07
2023-05-01T08:55:15.939Z,22.96
2023-05-01T08:57:48.056Z,22.91
2023-05-01T09:00:20.055Z,22.83
2023-05-01T09:02:50.866Z,22.93
2023-05-01T09:05:20.719Z,23.07
2023-05-01T09:07:51.747Z,23.27
2023-05-01T09:10:19.525Z,23.40
2023-05-01T09:12:52.858Z,23.64
2023-05-01T09:15:47.866Z,23.80
2023-05-01T09:21:43.677Z,24.18
2023-05-01T09:24:11.618Z,24.15
2023-05-01T09:26:42.259Z,24.10
2023-05-01T09:29:14.335Z,24.01
2023-05-01T09:31:43.737Z,23.88
2023-05-01T09:34:26.168Z,23.91
2023-05-01T09:36:50.079Z,23.92
2023-05-01T09:39:26.077Z,24.04
2023-05-01T09:41:55.870Z,24.27
2023-05-01T09:44:27.605Z,24.55
2023-05-01T09:46:55.591Z,24.84
2023-05-01T09:49:44.208Z,25.06
2023-05-01T09:52:13.071Z,25.32
2023-05-01T09:54:41.234Z,25.49
2023-05-01T09:57:09.923Z,25.57
2023-05-01T09:59:38.433Z,25.27
2023-05-01T10:02:05.992Z,24.86
2023-05-01T10:04:34.902Z,24.75
2023-05-01T10:07:13.640Z,24.84
2023-05-01T10:09:41.911Z,25.11
2023-05-01T10:12:10.559Z,25.33
2023-05-01T10:14:53.539Z,25.40
2023-05-01T10:17:22.394Z,25.43
2023-05-01T10:19:51.381Z,25.55
2023-05-01T10:22:19.097Z,25.36
2023-05-01T10:24:47.120Z,25.31
2023-05-01T10:27:21.642Z,25.36
2023-05-01T10:29:59.574Z,25.32
2023-05-01T10:32:27.500Z,25.32
2023-05-01T10:35:03.790Z,25.37
2023-05-01T10:37:51.624Z,25.58
2023-05-01T10:40:46.811Z,25.78
2023-05-01T10:43:28.987Z,25.78
2023-05-01T10:46:20.479Z,25.77
2023-05-01T10:48:53.973Z,25.65
2023-05-01T10:51:26.470Z,25.76
2023-05-01T10:54:20.859Z,25.85
2023-05-01T10:56:48.678Z,25.82
2023-05-01T10:59:16.539Z,25.80
2023-05-01T11:01:48.151Z,25.86
2023-05-01T11:04:27.644Z,25.84
2023-05-01T11:07:14.512Z,25.87
2023-05-01T11:09:52.198Z,25.71
2023-05-01T11:12:50.513Z,25.64
2023-05-01T11:15:31.698Z,25.32
2023-05-01T11:18:01.926Z,24.86
2023-05-01T11:20:48.353Z,24.85
2023-05-01T11:23:17.862Z,24.29
2023-05-01T11:25:47.276Z,24.11
2023-05-01T11:28:19.037Z,23.95
2023-05-01T11:30:47.174Z,23.87
2023-05-01T11:33:21.725Z,23.96
2023-05-01T11:35:56.324Z,24.10
2023-05-01T11:38:23.951Z,24.20
2023-05-01T11:40:59.962Z,23.87
2023-05-01T11:43:27.872Z,24.02
2023-05-01T11:45:58.085Z,24.21
2023-05-01T11:48:26.638Z,24.42
2023-05-01T11:50:54.581Z,24.49
2023-05-01T11:53:22.445Z,24.56
2023-05-01T11:55:50.994Z,24.47
2023-05-01T11:58:23.690Z,24.19
2023-05-01T12:00:52.241Z,23.91
2023-05-01T12:03:20.262Z,23.47
2023-05-01T12:05:49.913Z,23.45
2023-05-01T12:08:24.424Z,23.44
2023-05-01T12:10:56.657Z,23.32
2023-05-01T12:13:26.780Z,23.17
2023-05-01T12:15:55.866Z,23.16
2023-05-01T12:18:23.914Z,23.23
2023-05-01T12:20:54.850Z,23.24
2023-05-01T12:23:34.040Z,23.31
2023-05-01T12:26:04.568Z,23.34
2023-05-01T12:28:32.299Z,23.40
2023-05-01T12:31:05.385Z,23.32
2023-05-01T12:33:33.174Z,23.08
2023-05-01T12:36:11.338Z,23.05
2023-05-01T12:38:39.507Z,23.20
2023-05-01T12:41:08.870Z,23.41
2023-05-01T12:43:37.773Z,23.53
2023-05-01T12:46:14.760Z,23.60
2023-05-01T12:48:45.495Z,23.76
2023-05-01T12:51:19.969Z,23.79
2023-05-01T12:53:48.713Z,23.85
2023-05-01T12:56:36.192Z,23.91
2023-05-01T12:59:26.404Z,23.94
2023-05-01T13:02:00.237Z,23.96
2023-05-01T13:04:28.700Z,23.99
2023-05-01T13:07:27.883Z,24.09
2023-05-01T13:10:01.356Z,24.10
2023-05-01T13:12:55.029Z,23.98
2023-05-01T13:15:23.733Z,23.94
2023-05-01T13:17:55.417Z,23.95
2023-05-01T13:20:33.246Z,23.94
2023-05-01T13:23:07.324Z,23.92
2023-05-01T13:25:37.499Z,23.86
2023-05-01T13:28:06.269Z,23.81
2023-05-01T13:30:39.140Z,23.54
2023-05-01T13:33:33.429Z,23.29
2023-05-01T13:36:14.213Z,22.99
2023-05-01T13:38:45.714Z,22.96
2023-05-01T13:41:19.144Z,22.95
2023-05-01T13:43:50.096Z,22.87
2023-05-01T13:46:22.567Z,22.64
2023-05-01T13:49:02.857Z,22.56
2023-05-01T13:51:37.741Z,22.66
2023-05-01T13:54:12.531Z,22.79
2023-05-01T13:56:41.264Z,22.85
2023-05-01T13:59:10.367Z,22.71
2023-05-01T14:02:30.308Z,22.68
2023-05-01T14:12:40.333Z,22.30
2023-05-01T14:16:10.957Z,22.08
2023-05-01T14:18:33.345Z,21.84
2023-05-01T14:21:31.673Z,21.81
2023-05-01T14:27:22.073Z,21.93
2023-05-01T14:30:19.576Z,22.00
2023-05-01T14:32:54.981Z,22.02
2023-05-01T14:36:02.592Z,21.92
2023-05-01T14:39:04.466Z,21.93
2023-05-01T14:41:58.939Z,22.09
2023-05-01T14:44:39.674Z,22.15
2023-05-01T14:47:09.573Z,22.15
2023-05-01T14:49:40.470Z,21.96
2023-05-01T14:52:09.516Z,21.96
2023-05-01T14:54:47.636Z,21.87
2023-05-01T14:57:36.771Z,21.92
2023-05-01T15:03:57.257Z,21.71
2023-05-01T15:07:06.410Z,21.68
2023-05-01T15:09:36.076Z,21.67
2023-05-01T15:12:10.194Z,21.73
2023-05-01T15:14:47.839Z,21.79
2023-05-01T15:17:32.360Z,21.84
2023-05-01T15:20:17.813Z,21.83
2023-05-01T15:22:47.515Z,21.84
2023-05-01T15:25:20.566Z,21.87
2023-05-01T15:27:51.186Z,21.88
2023-05-01T15:30:25.867Z,21.82
2023-05-01T15:36:35.320Z,21.77
2023-05-01T15:39:06.043Z,21.76
2023-05-01T15:41:50.927Z,21.71
2023-05-01T15:44:35.894Z,21.64
2023-05-01T15:47:05.501Z,21.55
2023-05-01T15:49:41.810Z,21.46
2023-05-01T15:52:11.541Z,21.35
2023-05-01T15:55:04.167Z,21.31
2023-05-01T15:57:59.177Z,21.27
2023-05-01T16:00:38.749Z,21.21
2023-05-01T16:03:10.708Z,21.15
2023-05-01T16:06:20.345Z,21.10
2023-05-01T16:09:01.177Z,21.07
2023-05-01T16:12:02.602Z,21.06
2023-05-01T16:14:31.183Z,21.02
2023-05-01T16:17:08.047Z,20.97
2023-05-01T16:19:58.036Z,20.91
2023-05-01T16:22:56.163Z,20.81
2023-05-01T16:25:24.019Z,20.74
2023-05-01T16:27:54.144Z,20.71
2023-05-01T16:39:37.909Z,20.40
2023-05-01T16:42:05.730Z,20.32
2023-05-01T16:44:36.030Z,20.25
2023-05-01T16:50:07.039Z,20.15
2023-05-01T16:52:34.745Z,20.04
2023-05-01T16:55:03.169Z,19.98
2023-05-01T16:57:32.782Z,19.89
2023-05-01T17:00:05.565Z,19.84
2023-05-01T17:02:34.498Z,19.77
2023-05-01T17:05:02.953Z,19.71
2023-05-01T17:07:38.035Z,19.64
2023-05-01T17:13:30.503Z,19.52
2023-05-01T17:15:59.103Z,19.42
2023-05-01T17:18:26.664Z,19.34
2023-05-01T17:20:54.517Z,19.22
2023-05-01T17:23:22.512Z,19.10
2023-05-01T17:25:50.206Z,18.94
2023-05-01T17:28:19.191Z,18.74
2023-05-01T17:30:46.776Z,18.56
2023-05-01T17:33:16.152Z,18.40
2023-05-01T17:35:45.361Z,18.24
2023-05-01T17:41:25.576Z,17.95
2023-05-01T17:44:00.215Z,17.78
2023-05-01T17:46:31.301Z,17.58
2023-05-01T17:48:59.299Z,17.39
2023-05-01T17:51:29.673Z,17.20
2023-05-01T17:53:59.160Z,17.02
2023-05-01T17:56:30.559Z,16.86
2023-05-01T17:59:00.032Z,16.70
2023-05-01T18:01:47.892Z,16.55
2023-05-01T18:10:39.351Z,16.02
2023-05-01T18:13:19.539Z,15.82
2023-05-01T18:15:50.540Z,15.69
2023-05-01T18:18:18.414Z,15.56
2023-05-01T18:20:48.458Z,15.42
2023-05-01T18:23:18.194Z,15.28
2023-05-01T18:25:46.059Z,15.14
2023-05-01T18:28:18.266Z,15.02
2023-05-01T18:30:46.096Z,14.90
2023-05-01T18:33:14.212Z,14.79
2023-05-01T18:35:45.542Z,14.67
2023-05-01T18:38:14.468Z,14.58
2023-05-01T18:40:44.273Z,14.46
2023-05-01T18:43:13.697Z,14.37
2023-05-01T18:45:44.512Z,14.26
2023-05-01T18:48:12.387Z,14.15
2023-05-01T18:50:42.562Z,14.08
2023-05-01T18:53:14.055Z,13.99
2023-05-01T18:55:42.129Z,13.92
2023-05-01T18:58:10.605Z,13.83
2023-05-01T19:00:39.386Z,13.75
2023-05-01T19:03:08.465Z,13.66
2023-05-01T19:05:37.327Z,13.60
2023-05-01T19:08:06.954Z,13.53
2023-05-01T19:10:37.294Z,13.46
2023-05-01T19:13:07.266Z,13.40
2023-05-01T19:15:35.762Z,13.33
2023-05-01T19:18:05.684Z,13.24
2023-05-01T19:20:33.397Z,13.14
2023-05-01T19:23:04.011Z,13.08
2023-05-01T19:25:32.057Z,13.00
2023-05-01T19:28:01.617Z,12.93
2023-05-01T19:30:30.387Z,12.84
2023-05-01T19:32:59.351Z,12.77
2023-05-01T19:35:27.171Z,12.68
2023-05-01T19:40:52.452Z,12.53
2023-05-01T19:43:23.632Z,12.46
2023-05-01T19:45:51.654Z,12.38
2023-05-01T19:48:20.161Z,12.34
2023-05-01T19:50:51.363Z,12.28
2023-05-01T19:53:21.439Z,12.23
2023-05-01T19:55:50.001Z,12.18
2023-05-01T19:58:21.465Z,12.13
2023-05-01T20:00:51.550Z,12.06
2023-05-01T20:03:21.844Z,12.01
2023-05-01T20:06:01.744Z,11.95
2023-05-01T20:08:36.573Z,11.90
2023-05-01T20:11:04.582Z,11.84
2023-05-01T20:13:34.908Z,11.80
2023-05-01T20:16:09.008Z,11.75
2023-05-01T20:18:53.277Z,11.70
2023-05-01T20:21:23.050Z,11.65
2023-05-01T20:23:51.818Z,11.60
2023-05-01T20:26:29.174Z,11.55
2023-05-01T20:29:41.488Z,11.52
2023-05-01T20:32:15.138Z,11.46
2023-05-01T20:34:45.181Z,11.37
2023-05-01T20:37:13.824Z,11.33
2023-05-01T20:39:42.694Z,11.30
2023-05-01T20:42:11.788Z,11.23
2023-05-01T20:44:45.648Z,11.18
2023-05-01T20:47:14.708Z,11.14
2023-05-01T20:49:43.570Z,11.09
2023-05-01T20:52:12.930Z,11.03
2023-05-01T20:54:40.851Z,10.98
2023-05-01T20:57:11.612Z,10.94
2023-05-01T20:59:43.583Z,10.88
2023-05-01T21:02:12.238Z,10.85
2023-05-01T21:04:58.087Z,10.81
2023-05-01T21:07:26.029Z,10.78
2023-05-01T21:09:57.940Z,10.74
2023-05-01T21:12:36.595Z,10.73
2023-05-01T21:15:11.607Z,10.71
2023-05-01T21:17:44.335Z,10.69
2023-05-01T21:20:23.959Z,10.68
2023-05-01T21:22:56.862Z,10.63
2023-05-01T21:25:29.751Z,10.62
2023-05-01T21:28:02.923Z,10.58
2023-05-01T21:30:34.836Z,10.52
2023-05-01T21:33:14.594Z,10.50
2023-05-01T21:35:46.013Z,10.46
2023-05-01T21:38:17.841Z,10.41
2023-05-01T21:40:49.541Z,10.35
2023-05-01T21:43:22.438Z,10.34
2023-05-01T21:45:50.707Z,10.31
2023-05-01T21:48:20.897Z,10.29
2023-05-01T21:51:11.209Z,10.26
2023-05-01T21:53:43.846Z,10.25
2023-05-01T21:56:14.918Z,10.23
2023-05-01T21:58:44.694Z,10.22
2023-05-01T22:01:18.389Z,10.20
2023-05-01T22:03:47.388Z,10.19
2023-05-01T22:06:16.452Z,10.18
2023-05-01T22:08:45.311Z,10.17
2023-05-01T22:11:13.507Z,10.15
2023-05-01T22:13:42.904Z,10.15
2023-05-01T22:16:15.677Z,10.14
2023-05-01T22:19:08.339Z,10.12
2023-05-01T22:21:36.480Z,10.09
2023-05-01T22:24:06.128Z,10.07
2023-05-01T22:26:38.235Z,10.05
2023-05-01T22:29:11.840Z,10.02
2023-05-01T22:31:42.294Z,10.02
2023-05-01T22:34:10.875Z,10.02
2023-05-01T22:36:38.815Z,9.99
2023-05-01T22:39:07.178Z,9.97
2023-05-01T22:41:35.683Z,9.95
2023-05-01T22:44:03.687Z,9.94
2023-05-01T22:46:31.801Z,9.93
2023-05-01T22:49:02.679Z,9.92
2023-05-01T22:51:30.917Z,9.90
2023-05-01T22:53:58.691Z,9.91
2023-05-01T22:56:27.410Z,9.89
2023-05-01T22:58:56.262Z,9.87
2023-05-01T23:01:24.328Z,9.82
2023-05-01T23:03:52.848Z,9.81
2023-05-01T23:06:21.761Z,9.80
2023-05-01T23:08:55.946Z,9.78
2023-05-01T23:11:35.001Z,9.79
2023-05-01T23:17:15.344Z,9.75
2023-05-01T23:19:46.305Z,9.71
2023-05-01T23:22:15.011Z,9.68
2023-05-01T23:24:49.019Z,9.61
2023-05-01T23:27:27.145Z,9.58
2023-05-01T23:29:58.653Z,9.54
2023-05-01T23:32:30.205Z,9.50
2023-05-01T23:35:15.061Z,9.47
2023-05-01T23:37:43.323Z,9.43
2023-05-01T23:40:11.504Z,9.38
2023-05-01T23:42:39.700Z,9.32
2023-05-01T23:45:09.050Z,9.27
2023-05-01T23:47:38.329Z,9.24
2023-05-01T23:50:07.146Z,9.21
2023-05-01T23:52:36.364Z,9.17
2023-05-01T23:55:04.757Z,9.16
2023-05-01T23:57:34.054Z,9.13
